Time;durP1;ratioP1;P1;durP2;ratioP2;P2;SDS_P1;SDS_P2;PMS_P1;PMS_P2;Temp;Humidity;BMP_temperature;BMP_pressure;BME280_temperature;BME280_humidity;BME280_pressure;Samples;Min_cycle;Max_cycle;Signal;HPM_P1;HPM_P2
2023/09/05 00:00:10;;;;;;;3.08;2.88;;;21.90;91.60;;;;;;4988794;28;20275;-69
2023/09/05 00:02:38;;;;;;;4.28;3.20;;;21.80;91.40;;;;;;4976396;28;20185;-69
2023/09/05 00:05:07;;;;;;;4.10;3.80;;;21.80;91.40;;;;;;4966835;28;20217;-69
2023/09/05 00:07:37;;;;;;;3.45;3.15;;;21.80;91.50;;;;;;4974692;28;20276;-69
2023/09/05 00:10:05;;;;;;;3.60;3.30;;;21.80;91.60;;;;;;4991743;28;20354;-69
2023/09/05 00:12:32;;;;;;;3.50;3.22;;;21.80;91.60;;;;;;4972976;28;20185;-69
2023/09/05 00:14:58;;;;;;;3.25;2.95;;;21.80;91.60;;;;;;4975728;28;20288;-69
2023/09/05 00:17:25;;;;;;;3.30;3.00;;;21.80;91.50;;;;;;4976109;28;20743;-69
2023/09/05 00:19:51;;;;;;;3.50;3.20;;;21.80;91.50;;;;;;4957362;28;20189;-68
2023/09/05 00:22:19;;;;;;;3.63;3.33;;;21.80;91.50;;;;;;4957477;28;20285;-68
2023/09/05 00:24:45;;;;;;;3.40;3.15;;;21.80;91.40;;;;;;4953114;28;20206;-68
2023/09/05 00:27:11;;;;;;;3.35;3.05;;;21.80;91.60;;;;;;4939741;28;20889;-69
2023/09/05 00:29:39;;;;;;;3.30;3.10;;;21.80;91.50;;;;;;4949997;28;20708;-68
2023/09/05 00:32:05;;;;;;;3.75;3.42;;;21.80;91.50;;;;;;4945444;28;20178;-69
2023/09/05 00:34:34;;;;;;;3.72;3.40;;;21.80;91.40;;;;;;4956232;28;20268;-68
2023/09/05 00:37:05;;;;;;;3.22;3.00;;;21.80;91.50;;;;;;4948511;28;20182;-69
2023/09/05 00:39:33;;;;;;;3.55;3.25;;;21.80;91.50;;;;;;4966593;28;20189;-69
2023/09/05 00:42:00;;;;;;;3.67;3.38;;;21.80;91.40;;;;;;4956311;28;20640;-68
2023/09/05 00:44:27;;;;;;;3.50;3.20;;;21.80;91.40;;;;;;4936820;28;20254;-68
2023/09/05 00:46:55;;;;;;;3.80;3.50;;;21.80;91.20;;;;;;4937375;28;20190;-68
2023/09/05 00:49:29;;;;;;;3.53;3.22;;;21.80;91.20;;;;;;4944783;28;20214;-69
2023/09/05 00:52:00;;;;;;;3.25;3.05;;;21.80;91.20;;;;;;4936073;28;20626;-68
2023/09/05 00:54:26;;;;;;;3.30;3.03;;;21.80;91.20;;;;;;4929037;28;20206;-68
2023/09/05 00:56:53;;;;;;;3.17;2.80;;;21.80;91.20;;;;;;4936068;28;20727;-68
2023/09/05 00:59:22;;;;;;;3.42;3.03;;;21.70;91.20;;;;;;4955990;28;20200;-68
2023/09/05 01:01:48;;;;;;;3.72;3.10;;;21.80;91.30;;;;;;4939571;29;20302;-68
2023/09/05 01:04:14;;;;;;;3.10;2.85;;;21.80;91.20;;;;;;4939834;28;20264;-68
2023/09/05 01:07:01;;;;;;;4.47;3.38;;;21.80;91.30;;;;;;4939867;28;20193;-69
2023/09/05 01:09:46;;;;;;;3.40;3.10;;;21.80;91.30;;;;;;4955862;28;20292;-69
2023/09/05 01:12:13;;;;;;;3.40;3.10;;;21.80;91.40;;;;;;4955794;28;20282;-69
2023/09/05 01:14:39;;;;;;;3.10;2.90;;;21.80;91.20;;;;;;4939785;28;20244;-69
2023/09/05 01:17:05;;;;;;;3.10;2.88;;;21.80;91.20;;;;;;4964856;28;20182;-68
2023/09/05 01:19:41;;;;;;;3.08;2.88;;;21.80;91.20;;;;;;4923478;28;20200;-69
2023/09/05 01:22:50;;;;;;;3.35;3.05;;;21.80;91.20;;;;;;4962816;28;20185;-69
2023/09/05 01:25:17;;;;;;;3.10;2.80;;;21.70;91.10;;;;;;4953687;28;20217;-69
2023/09/05 01:27:48;;;;;;;3.55;3.25;;;21.80;91.20;;;;;;4955747;28;20300;-69
2023/09/05 01:30:15;;;;;;;2.95;2.75;;;21.80;91.20;;;;;;4938250;28;20668;-69
2023/09/05 01:32:42;;;;;;;2.63;2.42;;;21.70;91.20;;;;;;4949207;28;20609;-69
2023/09/05 01:35:08;;;;;;;3.28;2.92;;;21.80;91.30;;;;;;4947404;28;20205;-69
2023/09/05 01:37:34;;;;;;;2.80;2.60;;;21.70;91.20;;;;;;4955696;28;20562;-69
2023/09/05 01:40:00;;;;;;;2.92;2.72;;;21.80;91.20;;;;;;4955810;28;20727;-69
2023/09/05 01:42:25;;;;;;;3.08;2.88;;;21.70;91.10;;;;;;4939750;28;20189;-69
2023/09/05 01:44:51;;;;;;;2.80;2.60;;;21.80;91.20;;;;;;4946896;29;20214;-69
2023/09/05 01:47:17;;;;;;;3.00;2.70;;;21.70;91.00;;;;;;4937711;28;20201;-69
2023/09/05 01:49:42;;;;;;;3.38;3.08;;;21.70;91.00;;;;;;4955479;28;20209;-69
2023/09/05 01:52:08;;;;;;;3.08;2.78;;;21.80;91.00;;;;;;4955510;28;20588;-69
2023/09/05 01:54:39;;;;;;;3.15;2.90;;;21.70;90.90;;;;;;4939140;28;20225;-69
2023/09/05 01:57:05;;;;;;;3.00;2.80;;;21.70;91.00;;;;;;4955596;28;20193;-69
2023/09/05 01:59:31;;;;;;;3.97;2.85;;;21.70;90.90;;;;;;4923717;28;20194;-69
2023/09/05 02:01:57;;;;;;;2.90;2.70;;;21.70;91.00;;;;;;4939615;28;20221;-69
2023/09/05 02:04:23;;;;;;;3.20;3.00;;;21.70;90.90;;;;;;4937294;28;20224;-69
2023/09/05 02:06:49;;;;;;;2.95;2.75;;;21.70;90.90;;;;;;4936131;29;20241;-69
2023/09/05 02:09:14;;;;;;;2.95;2.75;;;21.70;91.00;;;;;;4939218;28;20217;-69
2023/09/05 02:11:40;;;;;;;2.92;2.72;;;21.70;91.00;;;;;;4928534;29;20297;-69
2023/09/05 02:14:06;;;;;;;2.85;2.65;;;21.70;90.90;;;;;;4955362;28;20216;-68
2023/09/05 02:16:33;;;;;;;2.70;2.50;;;21.80;90.90;;;;;;4939309;28;20177;-69
2023/09/05 02:18:59;;;;;;;2.80;2.60;;;21.70;90.90;;;;;;4931352;28;20186;-69
2023/09/05 02:21:24;;;;;;;3.03;2.75;;;21.70;91.00;;;;;;4951935;28;20197;-69
2023/09/05 02:23:51;;;;;;;3.00;2.60;;;21.70;91.00;;;;;;4969034;28;20185;-69
2023/09/05 02:26:16;;;;;;;3.03;2.83;;;21.70;91.00;;;;;;4950286;28;20194;-69
2023/09/05 02:28:44;;;;;;;3.00;2.80;;;21.70;91.00;;;;;;4948864;29;20203;-69
2023/09/05 02:31:10;;;;;;;2.72;2.53;;;21.70;90.90;;;;;;4975585;28;20249;-69
2023/09/05 02:33:37;;;;;;;2.80;2.60;;;21.70;91.00;;;;;;4946145;28;20603;-69
2023/09/05 02:36:15;;;;;;;2.67;2.47;;;21.70;91.00;;;;;;4946480;28;20178;-69
2023/09/05 02:38:42;;;;;;;2.65;2.45;;;21.70;90.90;;;;;;4958453;28;20213;-68
2023/09/05 02:41:13;;;;;;;2.80;2.60;;;21.70;90.90;;;;;;4933012;28;20211;-70
2023/09/05 02:43:39;;;;;;;2.90;2.70;;;21.70;90.90;;;;;;4950221;28;20273;-68
2023/09/05 02:46:05;;;;;;;2.97;2.67;;;21.70;90.90;;;;;;4942377;28;20182;-69
2023/09/05 02:48:30;;;;;;;2.55;2.35;;;21.70;90.80;;;;;;4942097;28;20210;-68
2023/09/05 02:51:09;;;;;;;2.95;2.47;;;21.70;90.90;;;;;;4958397;28;20229;-68
2023/09/05 02:53:35;;;;;;;2.75;2.55;;;21.70;90.90;;;;;;4950042;28;20252;-69
2023/09/05 02:56:02;;;;;;;2.78;2.58;;;21.70;90.90;;;;;;4942090;28;20213;-68
2023/09/05 02:58:30;;;;;;;2.78;2.35;;;21.70;90.90;;;;;;4958107;28;20220;-68
2023/09/05 03:01:11;;;;;;;2.70;2.50;;;21.70;90.90;;;;;;4941578;28;20196;-69
2023/09/05 03:03:37;;;;;;;2.50;2.30;;;21.70;90.90;;;;;;4958051;28;20196;-68
2023/09/05 03:06:15;;;;;;;2.90;2.70;;;21.70;90.90;;;;;;4950666;29;20175;-69
2023/09/05 03:08:45;;;;;;;2.67;2.47;;;21.70;90.90;;;;;;4932475;29;20289;-69
2023/09/05 03:11:15;;;;;;;2.90;2.70;;;21.70;90.90;;;;;;4957351;28;20205;-69
2023/09/05 03:13:41;;;;;;;2.55;2.35;;;21.70;90.80;;;;;;4957310;28;20281;-69
2023/09/05 03:16:06;;;;;;;2.63;2.42;;;21.70;90.80;;;;;;4942531;29;20265;-69
2023/09/05 03:18:34;;;;;;;2.80;2.60;;;21.70;90.90;;;;;;4930348;28;20182;-69
2023/09/05 03:21:00;;;;;;;2.63;2.42;;;21.70;90.80;;;;;;4933819;29;20186;-69
2023/09/05 03:23:25;;;;;;;2.50;2.30;;;21.70;90.90;;;;;;4957344;28;20280;-68
2023/09/05 03:25:52;;;;;;;2.97;2.78;;;21.70;90.80;;;;;;4938624;29;20218;-68
2023/09/05 03:28:19;;;;;;;2.50;2.30;;;21.70;90.90;;;;;;4957346;28;20237;-68
2023/09/05 03:30:46;;;;;;;2.50;2.30;;;21.70;90.90;;;;;;4957826;28;20184;-68
2023/09/05 03:33:11;;;;;;;2.42;2.22;;;21.70;90.90;;;;;;4957115;28;20284;-68
2023/09/05 03:35:37;;;;;;;2.60;2.40;;;21.70;90.80;;;;;;4954107;29;20210;-68
2023/09/05 03:38:06;;;;;;;2.40;2.20;;;21.70;90.80;;;;;;4938136;28;20177;-68
2023/09/05 03:40:32;;;;;;;2.70;2.50;;;21.70;90.80;;;;;;4957261;28;20204;-68
2023/09/05 03:42:58;;;;;;;2.60;2.40;;;21.70;90.80;;;;;;4957249;28;20193;-68
2023/09/05 03:45:23;;;;;;;2.83;2.63;;;21.70;90.80;;;;;;4939625;28;20207;-68
2023/09/05 03:47:49;;;;;;;2.38;2.17;;;21.70;90.80;;;;;;4952429;28;20233;-68
2023/09/05 03:50:17;;;;;;;2.90;2.70;;;21.70;90.90;;;;;;4936097;28;20214;-69
2023/09/05 03:52:44;;;;;;;2.55;2.35;;;21.70;90.80;;;;;;4989785;28;20210;-68
2023/09/05 03:55:09;;;;;;;2.38;2.17;;;21.70;90.90;;;;;;4954040;29;20317;-68
2023/09/05 03:57:35;;;;;;;2.83;2.63;;;21.70;90.90;;;;;;4933759;28;20269;-69
2023/09/05 04:00:03;;;;;;;2.55;2.35;;;21.70;90.90;;;;;;4946041;29;20724;-68
2023/09/05 04:02:39;;;;;;;2.65;2.45;;;21.70;90.90;;;;;;4955200;28;20648;-68
2023/09/05 04:05:05;;;;;;;2.60;2.40;;;21.70;90.80;;;;;;4952806;28;20220;-68
2023/09/05 04:07:31;;;;;;;2.88;2.67;;;21.70;90.80;;;;;;4941284;28;20228;-69
2023/09/05 04:09:57;;;;;;;2.60;2.40;;;21.60;90.70;;;;;;4957042;28;20688;-68
2023/09/05 04:12:23;;;;;;;2.30;2.10;;;21.70;90.70;;;;;;4948809;28;20190;-68
2023/09/05 04:14:49;;;;;;;2.50;2.30;;;21.70;90.50;;;;;;4940342;28;20300;-68
2023/09/05 04:17:15;;;;;;;2.80;2.60;;;21.70;90.80;;;;;;4950773;28;20273;-68
2023/09/05 04:19:40;;;;;;;2.90;2.70;;;21.60;90.70;;;;;;4929711;29;20187;-69
2023/09/05 04:22:06;;;;;;;2.70;2.50;;;21.70;90.90;;;;;;4937331;29;20213;-68
2023/09/05 04:24:32;;;;;;;2.60;2.40;;;21.70;90.70;;;;;;4947416;28;20221;-68
2023/09/05 04:26:59;;;;;;;2.38;2.22;;;21.70;90.80;;;;;;4948612;28;20196;-69
2023/09/05 04:29:25;;;;;;;2.90;2.70;;;21.70;90.80;;;;;;4974018;28;20214;-68
2023/09/05 04:31:51;;;;;;;2.50;2.30;;;21.60;90.70;;;;;;4973999;28;20257;-69
2023/09/05 04:34:17;;;;;;;2.45;2.25;;;21.60;90.70;;;;;;4939738;28;20215;-69
2023/09/05 04:36:42;;;;;;;2.70;2.50;;;21.70;90.70;;;;;;4953036;28;20194;-68
2023/09/05 04:39:10;;;;;;;2.13;2.03;;;21.70;90.70;;;;;;4960284;28;20211;-69
2023/09/05 04:41:35;;;;;;;2.58;2.38;;;21.70;90.70;;;;;;4960588;28;20193;-68
2023/09/05 04:44:01;;;;;;;3.13;2.50;;;21.70;90.70;;;;;;4962630;28;20209;-68
2023/09/05 04:46:37;;;;;;;2.80;2.28;;;21.70;90.80;;;;;;4948357;28;20220;-69
2023/09/05 04:49:03;;;;;;;2.10;1.95;;;21.60;91.10;;;;;;4940076;28;20229;-69
2023/09/05 04:51:29;;;;;;;2.72;2.53;;;21.60;90.80;;;;;;4954101;28;20251;-69
2023/09/05 04:53:55;;;;;;;2.50;2.30;;;21.70;90.80;;;;;;4961047;28;20238;-69
2023/09/05 04:56:21;;;;;;;2.75;2.55;;;21.60;90.70;;;;;;4953711;28;20267;-70
2023/09/05 04:58:47;;;;;;;2.45;2.25;;;21.60;90.70;;;;;;4956330;28;20236;-69
2023/09/05 05:01:13;;;;;;;2.28;2.08;;;21.60;90.60;;;;;;4936682;29;20194;-70
2023/09/05 05:03:39;;;;;;;2.42;2.22;;;21.60;90.70;;;;;;4947988;28;20190;-69
2023/09/05 05:06:05;;;;;;;2.17;1.98;;;21.60;90.70;;;;;;4948014;28;20240;-69
2023/09/05 05:08:30;;;;;;;2.20;2.10;;;21.60;90.70;;;;;;4973136;28;20206;-69
2023/09/05 05:10:56;;;;;;;2.40;2.20;;;21.60;90.60;;;;;;4955854;28;20200;-69
2023/09/05 05:13:22;;;;;;;2.10;2.00;;;21.60;90.80;;;;;;4939586;28;20191;-69
2023/09/05 05:15:48;;;;;;;2.40;2.20;;;21.60;90.70;;;;;;4937937;29;20206;-69
2023/09/05 05:18:14;;;;;;;2.30;2.10;;;21.60;90.70;;;;;;4955746;28;20208;-67
2023/09/05 05:20:40;;;;;;;2.90;2.60;;;21.60;90.70;;;;;;4955965;28;20232;-69
2023/09/05 05:23:06;;;;;;;2.53;2.33;;;21.60;90.70;;;;;;4955957;28;20261;-70
2023/09/05 05:25:32;;;;;;;2.40;2.20;;;21.60;90.70;;;;;;4972589;28;20217;-69
2023/09/05 05:27:59;;;;;;;2.85;2.33;;;21.60;90.70;;;;;;4939899;28;20200;-69
2023/09/05 05:30:24;;;;;;;2.35;2.15;;;21.60;90.70;;;;;;4955601;28;20194;-70
2023/09/05 05:32:50;;;;;;;2.45;2.25;;;21.60;90.70;;;;;;4972803;28;20236;-69
2023/09/05 05:35:16;;;;;;;2.67;2.47;;;21.60;90.70;;;;;;4955299;28;20251;-70
2023/09/05 05:37:41;;;;;;;2.38;2.17;;;21.60;90.70;;;;;;4939320;28;20213;-68
2023/09/05 05:40:11;;;;;;;2.60;2.40;;;21.60;90.70;;;;;;4939413;28;20194;-70
2023/09/05 05:42:37;;;;;;;2.67;2.47;;;21.60;90.70;;;;;;4955444;28;20205;-69
2023/09/05 05:45:03;;;;;;;2.45;2.25;;;21.60;90.70;;;;;;4955181;28;20224;-69
2023/09/05 05:47:31;;;;;;;1.92;1.83;;;21.60;90.70;;;;;;4945656;28;20192;-69
2023/09/05 05:49:57;;;;;;;2.83;2.22;;;21.60;90.70;;;;;;4946834;29;20202;-68
2023/09/05 05:52:23;;;;;;;2.38;2.17;;;21.60;90.70;;;;;;4952700;28;20259;-68
2023/09/05 05:54:49;;;;;;;2.90;2.40;;;21.60;90.70;;;;;;4947310;28;20292;-68
2023/09/05 05:57:14;;;;;;;2.40;2.20;;;21.60;90.60;;;;;;4947494;28;20265;-69
2023/09/05 05:59:40;;;;;;;2.50;2.30;;;21.60;90.70;;;;;;4969357;28;20233;-68
2023/09/05 06:02:07;;;;;;;2.13;2.03;;;21.60;90.70;;;;;;4950725;28;20219;-69
2023/09/05 06:04:33;;;;;;;2.30;2.10;;;21.60;90.70;;;;;;4954947;28;20210;-68
2023/09/05 06:06:58;;;;;;;2.25;2.05;;;21.60;90.70;;;;;;4958761;28;20235;-68
2023/09/05 06:09:24;;;;;;;2.28;2.13;;;21.60;90.70;;;;;;4942932;28;20217;-68
2023/09/05 06:11:50;;;;;;;2.63;2.30;;;21.60;90.80;;;;;;4958979;28;20213;-68
2023/09/05 06:14:15;;;;;;;2.60;2.40;;;21.60;90.80;;;;;;4976282;28;20292;-69
2023/09/05 06:16:44;;;;;;;2.40;2.20;;;21.60;90.70;;;;;;4959047;28;20194;-68
2023/09/05 06:19:10;;;;;;;2.22;2.13;;;21.60;90.70;;;;;;4943999;29;20257;-69
2023/09/05 06:21:36;;;;;;;2.17;2.08;;;21.60;90.70;;;;;;4972789;28;20272;-69
2023/09/05 06:24:02;;;;;;;2.35;2.15;;;21.60;90.80;;;;;;4951298;28;20219;-69
2023/09/05 06:26:27;;;;;;;2.35;2.17;;;21.60;90.70;;;;;;4969039;28;20227;-69
2023/09/05 06:28:54;;;;;;;2.47;2.28;;;21.60;90.80;;;;;;4958787;28;20228;-68
2023/09/05 06:31:20;;;;;;;2.70;2.50;;;21.60;90.80;;;;;;4975797;28;20280;-68
2023/09/05 06:33:46;;;;;;;2.45;2.25;;;21.60;90.80;;;;;;4966468;28;20194;-68
2023/09/05 06:36:12;;;;;;;2.80;2.58;;;21.60;90.80;;;;;;4939350;29;20189;-68
2023/09/05 06:38:37;;;;;;;2.60;2.40;;;21.60;90.70;;;;;;4944571;28;20186;-69
2023/09/05 06:41:11;;;;;;;2.25;2.05;;;21.60;90.80;;;;;;4958532;28;20194;-69
2023/09/05 06:43:37;;;;;;;2.47;2.28;;;21.60;90.80;;;;;;4958392;28;20314;-69
2023/09/05 06:46:07;;;;;;;2.55;2.35;;;21.60;90.80;;;;;;4948233;28;20590;-69
2023/09/05 06:48:40;;;;;;;2.58;2.38;;;21.60;90.80;;;;;;4941766;28;20205;-69
2023/09/05 06:51:06;;;;;;;2.40;2.20;;;21.60;90.70;;;;;;4952302;28;20202;-68
2023/09/05 06:53:33;;;;;;;3.15;2.20;;;21.60;90.70;;;;;;4950209;28;20201;-69
2023/09/05 06:55:59;;;;;;;2.50;2.30;;;21.60;91.00;;;;;;4955600;28;20258;-68
2023/09/05 06:58:26;;;;;;;2.40;2.20;;;21.60;90.60;;;;;;4954188;28;20668;-69
2023/09/05 07:00:56;;;;;;;2.40;2.20;;;21.60;90.60;;;;;;4954572;28;20190;-69
2023/09/05 07:03:23;;;;;;;2.20;2.10;;;21.60;90.60;;;;;;4975487;28;20232;-69
2023/09/05 07:05:52;;;;;;;2.20;2.00;;;21.60;91.00;;;;;;4958306;28;20209;-69
2023/09/05 07:08:17;;;;;;;2.58;2.10;;;21.60;90.60;;;;;;4976500;28;20189;-68
2023/09/05 07:10:43;;;;;;;2.95;2.20;;;21.60;90.60;;;;;;4946610;28;20197;-69
2023/09/05 07:13:09;;;;;;;2.20;2.00;;;21.70;90.60;;;;;;4938922;29;20178;-68
2023/09/05 07:15:35;;;;;;;2.72;2.42;;;21.70;90.50;;;;;;4955191;28;20232;-68
2023/09/05 07:18:01;;;;;;;2.10;2.00;;;21.70;90.50;;;;;;4950172;28;20648;-69
2023/09/05 07:20:27;;;;;;;2.10;2.00;;;21.70;90.50;;;;;;4950566;28;20218;-68
2023/09/05 07:22:53;;;;;;;2.20;2.00;;;21.70;90.50;;;;;;4962521;28;20644;-68
2023/09/05 07:25:18;;;;;;;2.00;1.90;;;21.60;90.50;;;;;;4968656;28;20221;-68
2023/09/05 07:27:44;;;;;;;2.50;2.30;;;21.70;90.50;;;;;;4962042;28;20193;-68
2023/09/05 07:30:10;;;;;;;2.30;2.10;;;21.70;90.50;;;;;;4957563;28;20229;-68
2023/09/05 07:32:36;;;;;;;2.63;2.42;;;21.70;90.50;;;;;;4939400;28;20216;-68
2023/09/05 07:35:03;;;;;;;2.75;2.47;;;21.70;90.50;;;;;;4957082;28;20216;-68
2023/09/05 07:37:29;;;;;;;2.45;1.95;;;21.70;90.80;;;;;;4963502;28;20186;-68
2023/09/05 07:39:55;;;;;;;2.45;1.90;;;21.70;90.50;;;;;;4941851;28;20208;-68
2023/09/05 07:42:21;;;;;;;2.08;1.98;;;21.70;90.50;;;;;;4943043;29;20201;-67
2023/09/05 07:44:46;;;;;;;2.70;2.10;;;21.70;90.50;;;;;;4949158;28;20220;-69
2023/09/05 07:47:12;;;;;;;2.30;2.10;;;21.70;90.40;;;;;;4964106;28;20193;-68
2023/09/05 07:49:42;;;;;;;2.20;2.10;;;21.70;90.40;;;;;;4939019;28;20293;-68
2023/09/05 07:52:08;;;;;;;2.03;1.92;;;21.70;90.40;;;;;;4960071;28;20550;-68
2023/09/05 07:54:35;;;;;;;2.65;2.45;;;21.70;90.30;;;;;;4949073;28;20679;-69
2023/09/05 07:57:02;;;;;;;2.60;2.40;;;21.70;90.40;;;;;;4949105;28;20192;-68
2023/09/05 07:59:28;;;;;;;2.47;2.28;;;21.70;90.30;;;;;;4942634;28;20210;-67
2023/09/05 08:01:56;;;;;;;2.47;2.28;;;21.80;90.20;;;;;;4947965;28;20193;-68
2023/09/05 08:04:23;;;;;;;2.60;2.38;;;21.80;90.20;;;;;;4940797;28;20221;-69
2023/09/05 08:06:49;;;;;;;2.80;2.60;;;21.80;90.30;;;;;;4949647;28;20194;-68
2023/09/05 08:09:15;;;;;;;2.20;2.10;;;21.80;90.20;;;;;;4956002;28;20299;-68
2023/09/05 08:11:41;;;;;;;4.38;2.75;;;21.90;90.20;;;;;;4930400;28;20350;-69
2023/09/05 08:14:07;;;;;;;2.25;2.05;;;21.90;90.10;;;;;;4945213;28;20635;-68
2023/09/05 08:16:34;;;;;;;2.42;2.22;;;21.90;90.10;;;;;;4945420;28;20205;-68
2023/09/05 08:19:00;;;;;;;2.55;2.35;;;21.90;90.10;;;;;;4958489;28;20261;-68
2023/09/05 08:21:26;;;;;;;2.03;1.92;;;21.90;90.10;;;;;;4940974;28;20187;-68
2023/09/05 08:23:53;;;;;;;2.35;2.15;;;21.90;90.30;;;;;;4937305;29;20680;-69
2023/09/05 08:26:19;;;;;;;2.33;2.13;;;21.90;90.20;;;;;;4976131;28;20197;-69
2023/09/05 08:28:45;;;;;;;2.90;2.70;;;21.90;90.20;;;;;;4944661;28;20211;-69
2023/09/05 08:31:12;;;;;;;2.60;2.40;;;21.90;90.10;;;;;;4943668;28;20186;-68
2023/09/05 08:33:38;;;;;;;2.67;2.17;;;21.90;90.00;;;;;;4941898;28;20273;-68
2023/09/05 08:36:05;;;;;;;2.70;2.50;;;21.90;90.20;;;;;;4940922;29;20182;-69
2023/09/05 08:38:31;;;;;;;2.40;2.17;;;21.90;90.10;;;;;;4931520;28;20189;-69
2023/09/05 08:41:01;;;;;;;2.30;2.10;;;21.90;90.10;;;;;;4945226;28;20190;-69
2023/09/05 08:43:28;;;;;;;2.30;2.10;;;21.90;90.30;;;;;;4945388;28;20201;-68
2023/09/05 08:45:55;;;;;;;2.00;1.80;;;21.90;90.20;;;;;;4952254;29;20206;-69
2023/09/05 08:48:21;;;;;;;2.85;2.20;;;21.90;90.20;;;;;;4977777;28;20213;-69
2023/09/05 08:50:48;;;;;;;3.42;2.22;;;21.90;90.20;;;;;;4937262;28;20191;-69
2023/09/05 08:53:19;;;;;;;2.20;2.00;;;21.90;90.20;;;;;;4942301;28;20204;-67
2023/09/05 08:55:45;;;;;;;2.35;2.15;;;21.90;90.20;;;;;;4965965;28;20244;-69
2023/09/05 08:58:15;;;;;;;2.55;1.90;;;22.00;90.30;;;;;;4948081;28;20194;-69
2023/09/05 09:00:43;;;;;;;2.10;1.98;;;21.90;90.00;;;;;;4948220;28;20210;-68
2023/09/05 09:03:09;;;;;;;2.80;2.05;;;21.90;90.00;;;;;;4956111;28;20189;-68
2023/09/05 09:05:36;;;;;;;2.10;2.00;;;21.90;90.00;;;;;;4947932;28;20312;-69
2023/09/05 09:08:04;;;;;;;2.88;2.03;;;21.90;90.00;;;;;;4953039;28;20208;-70
2023/09/05 09:10:30;;;;;;;2.58;2.05;;;21.90;90.10;;;;;;4934762;28;20213;-68
2023/09/05 09:13:15;;;;;;;2.33;2.13;;;21.90;90.10;;;;;;4969322;28;20190;-68
2023/09/05 09:15:43;;;;;;;2.45;2.25;;;21.90;90.50;;;;;;4946566;28;20212;-69
2023/09/05 09:18:19;;;;;;;2.72;2.17;;;21.90;90.10;;;;;;4947810;28;20185;-69
2023/09/05 09:20:50;;;;;;;1.98;1.88;;;21.90;90.10;;;;;;4939188;28;20289;-69
2023/09/05 09:23:27;;;;;;;2.85;2.10;;;21.90;90.20;;;;;;4946603;28;20276;-69
2023/09/05 09:25:54;;;;;;;2.63;2.42;;;22.00;90.20;;;;;;4940124;28;20201;-69
2023/09/05 09:28:34;;;;;;;2.65;2.45;;;21.90;90.20;;;;;;4939510;28;20190;-69
2023/09/05 09:31:03;;;;;;;1.80;1.70;;;22.00;90.30;;;;;;4930171;29;20186;-69
2023/09/05 09:33:31;;;;;;;2.78;2.33;;;21.90;90.10;;;;;;4930367;28;20688;-69
2023/09/05 09:36:00;;;;;;;2.35;2.15;;;22.00;90.10;;;;;;4931695;28;20210;-68
2023/09/05 09:38:28;;;;;;;3.15;2.42;;;21.90;90.20;;;;;;4939629;28;20217;-69
2023/09/05 09:40:55;;;;;;;2.40;2.20;;;21.90;90.10;;;;;;4957028;28;20265;-68
2023/09/05 09:43:21;;;;;;;2.50;2.30;;;21.90;90.30;;;;;;4940316;29;20222;-69
2023/09/05 09:45:47;;;;;;;2.28;1.98;;;21.90;90.30;;;;;;4939132;28;20217;-69
2023/09/05 09:48:18;;;;;;;2.15;1.95;;;22.00;90.30;;;;;;4945518;28;20228;-69
2023/09/05 09:50:45;;;;;;;3.03;2.72;;;21.90;90.20;;;;;;4948697;28;20244;-68
2023/09/05 09:53:27;;;;;;;2.50;2.30;;;22.00;90.40;;;;;;4949903;29;20252;-67
2023/09/05 09:55:54;;;;;;;3.28;2.50;;;22.00;90.40;;;;;;4947863;28;20209;-69
2023/09/05 09:58:24;;;;;;;2.45;2.20;;;21.90;90.30;;;;;;4948028;29;20186;-69
2023/09/05 10:00:52;;;;;;;1.90;1.80;;;22.00;90.30;;;;;;4967569;28;20660;-69
2023/09/05 10:03:19;;;;;;;2.17;1.98;;;22.00;90.40;;;;;;4953417;28;20191;-69
2023/09/05 10:05:46;;;;;;;3.08;2.53;;;22.00;90.40;;;;;;4938700;28;20229;-69
2023/09/05 10:08:12;;;;;;;3.13;2.03;;;22.00;90.40;;;;;;4964602;28;20645;-69
2023/09/05 10:10:42;;;;;;;5.03;2.15;;;22.00;90.40;;;;;;4939253;28;20193;-69
2023/09/05 10:13:09;;;;;;;2.45;2.13;;;22.00;90.40;;;;;;4963139;28;20212;-68
2023/09/05 10:15:39;;;;;;;2.42;2.22;;;22.00;90.30;;;;;;4962982;28;20205;-68
2023/09/05 10:18:09;;;;;;;2.30;2.00;;;22.00;90.30;;;;;;4939702;28;20269;-68
2023/09/05 10:20:37;;;;;;;3.60;2.50;;;22.00;90.40;;;;;;4954566;28;20192;-69
2023/09/05 10:23:05;;;;;;;3.28;1.85;;;22.00;90.40;;;;;;4933038;28;20189;-68
2023/09/05 10:25:33;;;;;;;3.00;2.28;;;22.00;90.40;;;;;;4948857;28;20214;-68
2023/09/05 10:27:58;;;;;;;2.20;2.00;;;22.00;90.40;;;;;;4954522;28;20189;-68
2023/09/05 10:30:24;;;;;;;2.80;2.33;;;22.00;90.40;;;;;;4948162;29;20217;-68
2023/09/05 10:32:53;;;;;;;2.20;2.00;;;22.00;90.40;;;;;;4946668;28;20216;-69
2023/09/05 10:35:20;;;;;;;2.33;2.13;;;22.00;90.50;;;;;;4946900;28;20220;-68
2023/09/05 10:37:59;;;;;;;2.10;1.90;;;22.00;90.40;;;;;;4963111;28;20186;-69
2023/09/05 10:40:39;;;;;;;2.63;2.38;;;22.10;90.50;;;;;;4955451;28;20228;-68
2023/09/05 10:43:08;;;;;;;2.35;2.15;;;22.00;90.50;;;;;;4964067;28;20189;-68
2023/09/05 10:45:37;;;;;;;2.50;2.25;;;22.00;90.50;;;;;;4957388;28;20211;-69
2023/09/05 10:48:15;;;;;;;3.08;2.10;;;22.10;90.60;;;;;;4955136;28;20192;-69
2023/09/05 10:51:10;;;;;;;2.30;2.10;;;22.10;90.60;;;;;;4970787;28;20220;-69
2023/09/05 10:53:42;;;;;;;2.40;2.20;;;22.10;90.60;;;;;;4941009;28;20224;-69
2023/09/05 10:56:45;;;;;;;4.20;2.10;;;22.00;90.60;;;;;;4958430;28;20280;-69
2023/09/05 10:59:26;;;;;;;2.60;2.40;;;22.10;90.60;;;;;;4944550;28;20211;-68
2023/09/05 11:01:56;;;;;;;3.85;2.45;;;22.00;90.60;;;;;;4947292;28;20661;-69
2023/09/05 11:04:30;;;;;;;2.38;2.15;;;22.10;90.60;;;;;;4960600;28;20288;-69
2023/09/05 11:07:03;;;;;;;6.10;4.05;;;22.00;90.70;;;;;;4938842;29;20194;-68
2023/09/05 11:09:38;;;;;;;3.70;2.90;;;22.10;91.00;;;;;;4938503;28;20256;-69
2023/09/05 11:12:05;;;;;;;6.35;3.45;;;22.10;90.80;;;;;;4938706;29;20253;-69
2023/09/05 11:14:34;;;;;;;2.80;2.60;;;22.10;90.60;;;;;;4949088;28;20212;-67
2023/09/05 11:17:01;;;;;;;4.55;2.95;;;22.10;90.60;;;;;;4934220;28;20209;-69
2023/09/05 11:19:42;;;;;;;3.92;3.13;;;22.10;90.60;;;;;;4949697;28;20189;-69
2023/09/05 11:22:18;;;;;;;4.03;3.33;;;22.00;90.50;;;;;;4951752;28;20186;-69
2023/09/05 11:24:50;;;;;;;7.90;4.50;;;22.00;90.60;;;;;;4939900;28;20221;-68
2023/09/05 11:27:23;;;;;;;4.68;3.22;;;22.10;90.70;;;;;;4952312;28;20190;-69
2023/09/05 11:29:51;;;;;;;4.75;3.42;;;22.10;90.70;;;;;;4939148;28;20224;-68
2023/09/05 11:32:17;;;;;;;5.65;4.00;;;22.10;90.60;;;;;;4928038;29;20178;-68
2023/09/05 11:34:48;;;;;;;3.45;3.13;;;22.10;90.70;;;;;;4970029;28;20305;-68
2023/09/05 11:37:20;;;;;;;6.60;3.80;;;22.10;90.70;;;;;;4944170;28;20247;-69
2023/09/05 11:39:51;;;;;;;6.38;3.83;;;22.00;90.60;;;;;;4949287;28;20314;-69
2023/09/05 11:42:30;;;;;;;5.40;3.30;;;22.10;90.70;;;;;;4947913;28;20185;-69
2023/09/05 11:44:58;;;;;;;4.55;3.28;;;22.10;90.50;;;;;;4957604;28;20212;-69
2023/09/05 11:47:27;;;;;;;4.63;3.65;;;22.10;90.60;;;;;;4941607;28;20197;-68
2023/09/05 11:49:54;;;;;;;5.68;3.80;;;22.10;90.70;;;;;;4957169;28;20217;-68
2023/09/05 11:52:23;;;;;;;6.20;3.55;;;22.10;90.80;;;;;;4956014;28;20193;-70
2023/09/05 11:54:51;;;;;;;9.95;4.15;;;22.10;90.50;;;;;;4955851;28;20213;-69
2023/09/05 11:57:20;;;;;;;5.43;3.78;;;22.10;90.70;;;;;;4930525;29;20572;-68
2023/09/05 11:59:47;;;;;;;6.40;4.05;;;22.10;90.50;;;;;;4955649;28;20240;-68
2023/09/05 12:02:16;;;;;;;4.38;3.50;;;22.10;90.50;;;;;;4949384;28;20185;-70
2023/09/05 12:04:42;;;;;;;8.73;4.05;;;22.10;90.50;;;;;;4972312;28;20229;-68
2023/09/05 12:07:08;;;;;;;9.23;4.47;;;22.10;90.70;;;;;;4976402;28;20598;-68
2023/09/05 12:09:34;;;;;;;6.20;3.70;;;22.10;90.60;;;;;;4936070;28;20210;-68
2023/09/05 12:12:08;;;;;;;5.85;4.10;;;22.10;90.60;;;;;;4971252;28;20178;-68
2023/09/05 12:14:55;;;;;;;5.32;3.70;;;22.10;90.60;;;;;;4945787;28;20304;-68
2023/09/05 12:17:24;;;;;;;4.95;3.80;;;22.10;90.60;;;;;;4962310;28;20265;-69
2023/09/05 12:19:55;;;;;;;6.90;3.63;;;22.10;90.60;;;;;;4940988;28;20186;-68
2023/09/05 12:22:31;;;;;;;5.88;4.00;;;22.10;90.50;;;;;;4948677;28;20194;-69
2023/09/05 12:25:16;;;;;;;6.47;4.07;;;22.10;90.30;;;;;;4943178;28;20209;-68
2023/09/05 12:27:48;;;;;;;6.97;3.78;;;22.20;90.30;;;;;;4949921;28;20191;-68
2023/09/05 12:30:31;;;;;;;5.28;3.45;;;22.10;90.40;;;;;;4954468;28;20304;-70
2023/09/05 12:33:07;;;;;;;5.30;3.35;;;22.20;90.50;;;;;;4955998;28;20224;-69
2023/09/05 12:35:34;;;;;;;5.50;3.60;;;22.20;90.50;;;;;;4937359;29;20216;-69
2023/09/05 12:38:07;;;;;;;6.18;3.92;;;22.10;90.30;;;;;;4940910;28;20197;-68
2023/09/05 12:40:33;;;;;;;5.57;3.40;;;22.20;90.30;;;;;;4973667;28;20192;-69
2023/09/05 12:43:00;;;;;;;4.78;3.72;;;22.20;90.30;;;;;;4965741;28;20186;-68
2023/09/05 12:45:26;;;;;;;5.53;3.70;;;22.20;90.30;;;;;;4941687;29;20215;-68
2023/09/05 12:47:53;;;;;;;7.13;3.30;;;22.20;90.30;;;;;;4952900;28;20217;-68
2023/09/05 12:50:28;;;;;;;7.72;3.92;;;22.20;90.10;;;;;;4950700;28;20244;-69
2023/09/05 12:52:54;;;;;;;5.20;3.35;;;22.10;90.50;;;;;;4974331;28;20187;-69